Terminal Aerodrome Forecast
Issued by NWS

Home | Current Version | Previous Version | Text Only | Print | Product List | Glossary On
Versions: 1 2 3 4 5 6 7 8 9 10 11 12 13 14 15
000
FTUS46 KSEW 220500
TAFBFI
TAF
KBFI 220537Z 2206/2306 18008KT P6SM SCT150
     FM220800 18008KT P6SM OVC016
     FM221700 18008KT P6SM SCT018 OVC026
     FM221900 18008KT P6SM SCT030 OVC040
     FM222100 20006KT P6SM SCT040 BKN100=

USA.gov is the U.S. government's official web portal to all federal, state and local government web resources and services.